Smiley, Texas
Current Conditions -  °F | °C
As of 5:15 AM on Monday 20 Oct 2014 (Local Time) from KT20 Reporting Station
Haze Haze  
Wind Chill: 64°   Ceiling: Unl
Heat Index: 64°   Visibility: 4mi
Dew Point: 64°   Wind: 3mph
Humidity: 99%   Direction: 30°NNE
Pressure: 30"   Gusts: NA
Location:  29.27°N, 97.64°W
Report Text: KT20 201015Z AUTO 03003KT 4SM BR CLR 18/18 A3000 RMK AO2 T01760175
Loading
Personal Weather Stations






























Interactive Weather Map
Tropical Storm Tracking
New forecast layout! Learn more

10-Day Weather Forecast

Advertisements
Track Severe Weather on mobile